Stations météo

réclame
Mon MeteoGroup
Beitem, Belgique (6414): Température de l'air & dewpoint: 20.05.2018 23:00:00 - 26.05.2018 23:00:00 (CEST)Beitem, Belgique (6414): Vitesse du vent & gusts: 20.05.2018 23:00:00 - 26.05.2018 23:00:00 (CEST)Beitem, Belgique (6414): Direction du vent: 20.05.2018 23:00:00 - 26.05.2018 23:00:00 (CEST)Beitem, Belgique (6414): reduced air pressure: 20.05.2018 23:00:00 - 26.05.2018 23:00:00 (CEST)Beitem, Belgique (6414): Ensoleillement: 20.05.2018 23:00:00 - 26.05.2018 23:00:00 (CEST)Beitem, Belgique (6414): Quantités de précipitations: 20.05.2018 23:00:00 - 26.05.2018 23:00:00 (CEST)
Date & Time tt [°C] td [°C] ff [km/h] ff [knt] fx [km/h] fx [knt] dd ppp [hPa] sd [min] rr [mm]
26.05.2018 23:00:00 24,7 15,7 12 7 19 10 E 1017,3 0 0,0
26.05.2018 22:00:00 25,9 15,6 11 6 26 14 ENE 1017,0 0 0,0
26.05.2018 21:00:00 27,2 15,5 16 9 29 16 E 1016,8 52 0,0
26.05.2018 20:00:00 28,3 14,8 14 8 27 15 ENE 1016,7 59 0,0
26.05.2018 19:00:00 29,0 14,6 17 9 31 17 E 1016,7 60 0,0
26.05.2018 18:00:00 29,1 14,6 17 9 31 17 E 1016,9 60 0,0
26.05.2018 17:00:00 29,3 14,1 15 8 29 16 E 1017,3 60 0,0
26.05.2018 16:00:00 28,8 13,2 16 8 33 18 ESE 1017,8 60 0,0
26.05.2018 15:00:00 28,3 14,3 18 10 32 17 E 1018,3 60 0,0
26.05.2018 14:00:00 27,4 14,6 21 11 33 18 E 1018,5 60 0,0
26.05.2018 13:00:00 26,0 16,5 18 10 27 15 E 1018,6 60 0,0
26.05.2018 12:00:00 24,1 17,1 12 7 18 10 NE 1018,8 60 0,0
26.05.2018 11:00:00 21,0 16,9 11 6 17 9 ENE 1018,9 60 0,0
26.05.2018 10:00:00 18,3 15,8 9 5 16 9 NE 1019,1 60 0,0
26.05.2018 09:00:00 15,5 14,9 6 3 11 6 NNE 1019,1 10 0,0
26.05.2018 08:00:00 14,1 13,9 8 5 13 7 NNE 1018,7 0 0,1
26.05.2018 07:00:00 13,7 13,6 7 4 16 9 NW 1018,9 0 0,0
26.05.2018 06:00:00 13,7 13,6 7 4 11 6 NNW 1018,6 0 0,0
26.05.2018 05:00:00 13,7 13,5 6 3 16 9 WNW 1019,0 0 0,0
26.05.2018 04:00:00 13,8 13,6 8 4 12 6 NNW 1018,6 0 0,0
26.05.2018 03:00:00 14,1 13,8 7 4 10 6 N 1018,9 0 0,0
26.05.2018 02:00:00 14,1 13,8 7 4 10 5 NNE 1019,0 0 0,0
26.05.2018 01:00:00 14,1 14,0 7 4 11 6 NNE 1019,2 0 0,0
26.05.2018 00:00:00 14,4 14,0 7 4 14 7 NNE 1019,1 0 0,0
25.05.2018 23:00:00 14,9 14,3 9 5 17 9 N 1019,2 0 0,0
25.05.2018 22:00:00 15,8 14,5 12 7 18 10 N 1019,0 0 0,0
25.05.2018 21:00:00 17,9 15,5 13 7 21 11 N 1018,5 19 0,0
25.05.2018 20:00:00 20,0 16,4 14 8 21 11 N 1018,1 60 0,0
25.05.2018 19:00:00 21,5 16,4 16 9 23 12 N 1017,8 60 0,0
25.05.2018 18:00:00 22,1 16,1 14 8 20 11 NNW 1018,1 60 0,0
25.05.2018 17:00:00 22,5 15,9 13 7 25 14 NW 1018,4 60 0,0
25.05.2018 16:00:00 22,1 15,5 7 4 13 7 WSW 1018,5 60 0,0
25.05.2018 15:00:00 20,6 15,6 8 4 18 10 NW 1018,7 55 0,0
25.05.2018 14:00:00 19,1 15,0 4 2 12 6 W 1018,8 42 0,0
25.05.2018 13:00:00 17,7 15,2 4 2 11 6 SSW 1018,6 0 0,0
25.05.2018 12:00:00 16,9 15,5 6 4 10 5 SW 1018,5 0 0,0
25.05.2018 11:00:00 16,2 15,1 6 3 12 7 WSW 1018,5 0 0,0
25.05.2018 10:00:00 15,6 15,1 8 5 11 6 S 1018,4 0 0,0
25.05.2018 09:00:00 15,3 15,0 5 3 14 7 S 1018,0 0 0,0
25.05.2018 08:00:00 15,3 15,0 7 4 16 8 SSW 1017,5 0 0,0
25.05.2018 07:00:00 15,0 15,0 8 4 12 7 SW 1017,5 0 0,0
25.05.2018 06:00:00 15,2 15,2 6 3 13 7 SW 1017,1 0 0,0
25.05.2018 05:00:00 14,9 14,9 4 2 9 5 WSW 1016,7 0 0,0
25.05.2018 04:00:00 15,0 14,8 4 2 10 6 SW 1016,5 0 0,0
25.05.2018 03:00:00 15,4 14,9 5 3 12 7 W 1016,8 0 0,0
25.05.2018 02:00:00 16,2 15,6 7 4 16 9 W 1016,7 0 0,0
25.05.2018 01:00:00 16,5 14,7 10 5 16 9 S 1016,8 0 0,0
25.05.2018 00:00:00 16,8 15,7 8 4 11 6 E 1016,4 0 0,0
24.05.2018 23:00:00 16,6 15,2 4 2 10 5 S 1016,9 0 0,0
24.05.2018 22:00:00 17,5 14,1 4 2 9 5 E 1016,4 0 0,0
24.05.2018 21:00:00 18,3 15,3 6 4 14 7 NE 1016,4 0 0,0
24.05.2018 20:00:00 18,8 15,2 4 2 16 9 NE 1016,7 0 0,0
24.05.2018 19:00:00 18,6 15,1 13 7 23 13 SW 1015,9 0 0,0
24.05.2018 18:00:00 21,4 15,1 9 5 15 8 SSE 1016,3 0 0,0
24.05.2018 17:00:00 22,2 14,1 10 5 19 10 E 1015,9 7 0,0
24.05.2018 16:00:00 22,9 15,3 11 6 17 9 NE 1016,5 2 0,0
24.05.2018 15:00:00 23,5 14,7 9 5 20 11 E 1016,7 46 0,0
24.05.2018 14:00:00 23,1 13,3 14 8 21 12 E 1017,4 60 0,0
24.05.2018 13:00:00 22,2 13,7 10 5 18 10 E 1017,9 60 0,0
24.05.2018 12:00:00 20,7 14,7 11 6 17 9 NE 1018,6 36 0,0
24.05.2018 11:00:00 18,8 13,0 10 6 18 10 E 1018,8 46 0,0
24.05.2018 10:00:00 17,4 12,9 11 6 18 10 ENE 1018,9 25 0,0
24.05.2018 09:00:00 17,2 12,9 10 6 15 8 ENE 1019,3 8 0,0
24.05.2018 08:00:00 16,7 14,3 7 4 12 6 ENE 1019,2 4 0,0
24.05.2018 07:00:00 16,1 14,9 6 3 9 5 NE 1019,1 0 0,0
24.05.2018 06:00:00 15,5 14,7 6 3 8 4 NNE 1019,3 0 0,0
24.05.2018 05:00:00 15,5 14,9 6 3 8 4 NE 1019,5 0 0,0
24.05.2018 04:00:00 15,9 14,8 5 3 10 5 NE 1019,6 0 0,0
24.05.2018 03:00:00 15,7 14,9 4 2 6 4 NE 1019,9 0 0,0
24.05.2018 02:00:00 16,4 14,7 4 2 20 11 SSE 1020,4 0 0,2
24.05.2018 01:00:00 17,1 15,8 10 5 16 9 E 1020,8 0 0,0
24.05.2018 00:00:00 16,0 15,7 5 3 12 6 NNW 1020,2 0 0,0
23.05.2018 23:00:00 16,1 15,2 9 5 15 8 NNW 1020,3 0 0,0
23.05.2018 22:00:00 15,9 15,3 4 2 10 5 NW 1019,9 0 5,0
23.05.2018 21:00:00 16,3 14,7 14 8 36 19 E 1020,3 - -
23.05.2018 20:00:00 19,7 16,7 11 6 17 9 NW 1019,4 0 0,0
23.05.2018 19:00:00 19,5 17,0 5 3 21 12 N 1019,3 2 1,5
23.05.2018 18:00:00 21,5 16,1 15 8 24 13 NNE 1019,3 43 0,0
23.05.2018 17:00:00 21,1 16,0 12 7 22 12 N 1019,4 42 0,0
23.05.2018 16:00:00 19,5 15,4 13 7 22 12 N 1020,0 27 0,0
23.05.2018 15:00:00 18,2 15,2 14 7 22 12 NNE 1020,4 0 0,0
23.05.2018 14:00:00 17,1 14,8 16 9 24 13 N 1020,5 0 0,0
23.05.2018 13:00:00 16,8 14,7 15 8 23 13 N 1020,4 0 0,0
23.05.2018 12:00:00 16,6 15,1 14 8 19 11 N 1020,4 1 0,0
23.05.2018 11:00:00 15,2 14,2 11 6 17 9 N 1020,4 0 0,1
23.05.2018 10:00:00 14,6 13,4 9 5 18 10 N 1020,2 0 0,0
23.05.2018 09:00:00 13,6 12,7 12 6 22 12 NNW 1019,6 0 0,0
23.05.2018 08:00:00 13,0 12,1 14 8 23 12 N 1019,5 0 0,0
23.05.2018 07:00:00 12,6 11,6 16 9 23 13 NNW 1018,9 0 0,0
23.05.2018 06:00:00 12,7 11,6 15 8 23 13 NNW 1018,5 0 0,2
23.05.2018 05:00:00 13,0 11,6 15 8 23 13 NNW 1018,0 0 0,1
23.05.2018 04:00:00 13,1 11,6 13 7 20 11 NNW 1017,6 0 0,9
23.05.2018 03:00:00 13,8 11,3 12 6 18 10 NNW 1017,6 0 0,0
23.05.2018 02:00:00 13,3 11,3 11 6 17 9 NNW 1017,3 0 0,0
23.05.2018 01:00:00 13,4 11,0 10 5 21 12 NNW 1017,3 0 0,0
23.05.2018 00:00:00 14,0 11,4 12 6 19 10 NNW 1017,2 0 0,0
22.05.2018 23:00:00 15,1 12,0 12 7 22 12 NW 1016,7 0 0,0
22.05.2018 22:00:00 17,8 11,8 13 7 20 11 NNW 1016,0 0 0,0
22.05.2018 21:00:00 19,7 10,7 16 9 30 16 NNE 1015,4 3 0,0
22.05.2018 20:00:00 21,0 10,8 22 12 32 17 N 1014,7 56 0,0
22.05.2018 19:00:00 22,3 10,7 22 12 30 16 NNE 1014,5 60 0,0
22.05.2018 18:00:00 22,1 12,2 21 11 35 19 N 1014,2 60 0,0
22.05.2018 17:00:00 22,6 12,4 26 14 34 19 N 1013,5 60 0,0
22.05.2018 16:00:00 23,4 12,9 20 11 29 16 NNW 1013,3 60 0,0
22.05.2018 15:00:00 23,0 13,1 17 9 29 15 N 1013,6 60 0,0
22.05.2018 14:00:00 23,0 13,9 14 8 26 14 N 1013,5 43 0,0
22.05.2018 13:00:00 22,6 13,0 11 6 23 12 N 1013,5 60 0,0
22.05.2018 12:00:00 21,6 12,8 14 7 23 12 N 1013,5 60 0,0
22.05.2018 11:00:00 19,5 13,8 10 5 16 9 NNE 1013,4 60 0,0
22.05.2018 10:00:00 17,2 13,5 9 5 17 9 N 1013,6 60 0,0
22.05.2018 09:00:00 15,0 13,5 7 4 13 7 NW 1013,1 21 0,0
22.05.2018 08:00:00 13,8 12,8 7 4 10 5 NW 1013,1 0 0,0
22.05.2018 07:00:00 12,4 12,0 5 3 10 5 WNW 1012,6 4 0,0
22.05.2018 06:00:00 11,8 11,4 6 3 12 6 WNW 1012,5 0 0,0
22.05.2018 05:00:00 11,3 10,9 5 3 8 5 WNW 1012,4 0 0,0
22.05.2018 04:00:00 12,1 11,4 6 3 12 7 WNW 1011,8 0 0,0
22.05.2018 03:00:00 13,1 11,9 11 6 16 9 W 1012,1 0 0,0
22.05.2018 02:00:00 15,6 14,3 7 4 9 5 NE 1012,0 0 0,1
22.05.2018 01:00:00 15,7 13,9 7 4 13 7 N 1012,5 0 0,1
22.05.2018 00:00:00 16,2 12,2 5 3 14 7 NW 1012,4 0 0,0
21.05.2018 23:00:00 17,4 11,8 11 6 14 7 WNW 1012,2 0 0,0
21.05.2018 22:00:00 18,6 11,8 8 4 13 7 NW 1012,2 8 0,0
21.05.2018 21:00:00 20,3 12,2 7 4 21 11 NNW 1012,0 8 0,0
21.05.2018 20:00:00 21,6 12,0 14 8 22 12 NW 1011,7 25 0,0
21.05.2018 19:00:00 23,0 11,2 16 9 26 14 NW 1011,9 60 0,0
21.05.2018 18:00:00 22,8 11,5 16 9 27 15 N 1012,0 36 0,0
21.05.2018 17:00:00 23,6 10,3 10 5 24 13 NE 1012,6 57 0,0
21.05.2018 16:00:00 22,8 11,5 14 7 23 13 E 1013,2 58 0,0
21.05.2018 15:00:00 21,7 10,4 14 7 24 13 NE 1013,9 16 0,0
21.05.2018 14:00:00 20,9 12,1 11 6 18 10 N 1014,1 15 0,0
21.05.2018 13:00:00 18,5 13,1 7 4 11 6 ENE 1015,1 22 0,3
21.05.2018 12:00:00 18,1 12,1 14 7 27 15 ENE 1015,3 6 0,3
21.05.2018 11:00:00 19,6 11,3 16 9 32 17 E 1015,4 50 0,0
21.05.2018 10:00:00 18,9 12,9 11 6 17 9 ENE 1015,9 48 0,0
21.05.2018 09:00:00 15,2 12,3 5 3 13 7 E 1016,3 0 0,0
21.05.2018 08:00:00 15,0 11,7 11 6 15 8 NE 1016,7 0 0,0
21.05.2018 07:00:00 13,8 11,6 6 3 8 4 NE 1016,9 0 0,0
21.05.2018 06:00:00 12,6 11,5 0 0 5 3 N 1017,2 0 0,0
21.05.2018 05:00:00 11,9 10,7 4 2 8 5 NNW 1017,6 0 0,0
21.05.2018 04:00:00 12,8 11,4 7 4 9 5 NE 1018,0 0 0,0
21.05.2018 03:00:00 11,8 10,8 6 3 9 5 NE 1018,9 0 0,0
21.05.2018 02:00:00 11,2 9,9 4 2 5 3 NNE 1019,3 0 0,0
21.05.2018 01:00:00 12,4 10,7 7 4 11 6 NE 1019,5 0 0,0
21.05.2018 00:00:00 13,4 10,7 4 2 10 6 NNE 1019,5 0 0,0
20.05.2018 23:00:00 13,7 10,5 8 5 18 10 NNE 1020,1 0 0,0

tt = Température de l'air
td = dewpoint
ff = Vitesse du vent
fx = gusts
dd = Direction du vent
ppp = reduced air pressure
sd = Ensoleillement
rr = Quantités de précipitations

stations d'obs. à proximité